This is the latest recevied weather packets stored in our database for station/object KO4RJX-11. If no packets are shown the sender has not sent any weather packets the latest 10 day(s).
| Time | Temp. | Humidity | Pressure | Rain* | Wind** | Luminosity | Snow |
|---|---|---|---|---|---|---|---|
| 1777744393 | 10.56° C | 96% | 1007.6 hPa | 16.26 mm | - | - | - |
| 1777740793 | 10.56° C | 97% | 1007.9 hPa | 15.75 mm | - | - | - |
| 1777738123 | 10.56° C | 96% | 1008.6 hPa | 12.95 mm | - | - | - |
| 1777735593 | 10.56° C | 95% | 1008.3 hPa | 11.68 mm | - | - | - |
| 1777733993 | 11.11° C | 96% | 1009 hPa | 11.18 mm | - | - | - |
| 1777733193 | 11.11° C | 96% | 1008.6 hPa | 10.92 mm | - | - | - |
| 1777728394 | 11.11° C | 96% | 1007.6 hPa | 7.62 mm | - | - | - |
| 1777726793 | 11.11° C | 95% | 1007.3 hPa | 7.11 mm | - | - | - |
| 1777725993 | 11.11° C | 94% | 1007.3 hPa | 6.86 mm | - | - | - |
| 1777724393 | 11.11° C | 95% | 1006.9 hPa | 5.84 mm | - | - | - |
| 1777723194 | 11.11° C | 93% | 1006.9 hPa | 4.83 mm | - | - | - |
| 1777719193 | 11.67° C | 88% | 1007.3 hPa | 1.52 mm | - | - | - |
| 1777718793 | 11.67° C | 88% | 1007.3 hPa | 1.02 mm | - | - | - |
| 1777717993 | 11.67° C | 89% | 1007.3 hPa | 0.51 mm | - | - | - |
| 1777716527 | 11.67° C | 88% | 1007.3 hPa | 0 mm | - | - | - |
| 1777709593 | 11.67° C | 92% | 1006.9 hPa | 0 mm | - | - | - |
| 1777708393 | 11.67° C | 92% | 1006.9 hPa | 0 mm | - | - | - |
| 1777707593 | 11.11° C | 94% | 1006.6 hPa | 0 mm | - | - | - |
| 1777706393 | 11.11° C | 95% | 1006.2 hPa | 0 mm | - | - | - |
| 1777705193 | 11.11° C | 96% | 1006.9 hPa | 0 mm | - | - | - |
| 1777703993 | 11.11° C | 95% | 1006.6 hPa | 0 mm | - | - | - |
| 1777703593 | 11.11° C | 95% | 1006.9 hPa | 0 mm | - | - | - |
| 1777702394 | 11.67° C | 96% | 1006.9 hPa | 0 mm | - | - | - |
| 1777701993 | 11.67° C | 97% | 1006.9 hPa | 0 mm | - | - | - |
| 1777697193 | 11.11° C | 96% | 1007.6 hPa | 0 mm | - | - | - |
* Rain since midnight (hover to see other rain measurements)
** Current wind speed in m/s (hover to see current wind gust speed)